Time;durP1;ratioP1;P1;durP2;ratioP2;P2;SDS_P1;SDS_P2;PMS_P1;PMS_P2;Temp;Humidity;BMP_temperature;BMP_pressure;BME280_temperature;BME280_humidity;BME280_pressure;Samples;Min_cycle;Max_cycle;Signal;HPM_P1;HPM_P2
2021/05/25 00:00:26;;;;;;;2.78;1.95;;;;;;;15.68;69.32;99447.81;4944375;29;35296;-96
2021/05/25 00:03:23;;;;;;;6.80;2.47;;;;;;;15.63;69.33;99410.34;4952545;28;34763;-93
2021/05/25 00:05:59;;;;;;;3.00;1.92;;;;;;;15.74;69.22;99421.56;4958967;28;34191;-91
2021/05/25 00:08:35;;;;;;;4.65;2.42;;;;;;;15.84;68.66;99430.03;4929219;29;33655;-91
2021/05/25 00:11:11;;;;;;;2.83;1.90;;;;;;;15.84;68.71;99410.97;4944340;29;33999;-90
2021/05/25 00:13:44;;;;;;;4.28;2.40;;;;;;;15.89;68.56;99394.75;4944852;29;33476;-92
2021/05/25 00:16:17;;;;;;;2.42;2.20;;;;;;;15.82;68.87;99396.72;4944936;29;33499;-91
2021/05/25 00:18:52;;;;;;;5.47;1.60;;;;;;;16.05;68.04;99426.81;4945336;29;35370;-96
2021/05/25 00:21:25;;;;;;;3.17;1.92;;;;;;;15.97;67.77;99426.28;4928860;29;34006;-96
2021/05/25 00:34:48;;;;;;;5.15;2.10;;;;;;;15.79;68.75;99424.44;4905366;29;31915;-91
2021/05/25 00:37:21;;;;;;;3.45;2.33;;;;;;;16.00;68.18;99425.84;4945728;29;35415;-91
2021/05/25 00:39:57;;;;;;;3.00;2.58;;;;;;;16.02;68.39;99421.81;4960500;28;33525;-96
2021/05/25 00:42:45;;;;;;;4.78;1.98;;;;;;;15.79;68.99;99421.72;4948650;28;34914;-96
2021/05/25 00:45:19;;;;;;;2.33;2.12;;;;;;;15.95;68.76;99407.44;4960105;28;33845;-95
2021/05/25 00:51:58;;;;;;;2.55;1.92;;;;;;;15.89;69.00;99400.19;4957189;28;34000;-91
2021/05/25 00:54:32;;;;;;;3.67;2.20;;;;;;;15.94;68.67;99411.22;4972344;28;33625;-95
2021/05/25 00:57:06;;;;;;;2.30;2.10;;;;;;;16.01;68.53;99425.59;4971807;28;31974;-96
2021/05/25 01:00:34;;;;;;;2.17;1.62;;;;;;;15.82;68.90;99374.94;4549286;28;35392;-92
2021/05/25 01:03:07;;;;;;;2.62;1.80;;;;;;;15.92;68.37;99439.78;4985664;28;34696;-95
2021/05/25 01:05:53;;;;;;;3.62;2.20;;;;;;;15.64;69.78;99431.09;4930202;29;34334;-95
2021/05/25 01:08:26;;;;;;;2.90;1.70;;;;;;;15.45;70.60;99394.00;4962102;28;33613;-95
2021/05/25 01:11:50;;;;;;;5.12;1.80;;;;;;;15.80;69.60;99415.22;4735614;29;36032;-95
2021/05/25 01:14:24;;;;;;;4.30;2.12;;;;;;;15.83;69.53;99428.38;4949156;29;34591;-95
2021/05/25 01:17:32;;;;;;;6.87;1.83;;;;;;;15.87;69.74;99421.41;4808648;28;35541;-91
2021/05/25 01:20:05;;;;;;;7.15;1.60;;;;;;;16.07;69.35;99426.56;4947873;29;33725;-96
2021/05/25 01:22:54;;;;;;;6.18;1.90;;;;;;;16.06;69.43;99438.53;4907491;29;36147;-95
2021/05/25 01:25:28;;;;;;;4.68;1.70;;;;;;;16.05;69.66;99428.72;4927194;29;34925;-90
2021/05/25 01:28:05;;;;;;;3.22;1.42;;;;;;;16.12;69.57;99450.41;4911488;29;34375;-96
2021/05/25 01:30:50;;;;;;;2.08;1.42;;;;;;;16.17;69.65;99447.84;4910795;29;32338;-96
2021/05/25 01:33:37;;;;;;;3.30;1.98;;;;;;;16.25;69.46;99436.59;4912363;29;35931;-96
2021/05/25 01:36:15;;;;;;;2.75;1.73;;;;;;;16.10;70.24;99408.94;4910376;29;33132;-96
2021/05/25 01:39:18;;;;;;;3.83;1.73;;;;;;;16.28;70.01;99391.69;4794866;28;35246;-96
2021/05/25 01:41:55;;;;;;;2.17;1.83;;;;;;;16.22;70.16;99393.44;4947378;29;34965;-91
2021/05/25 01:44:33;;;;;;;1.73;1.47;;;;;;;16.15;70.27;99407.19;4964336;28;36168;-96
2021/05/25 01:47:23;;;;;;;3.35;1.65;;;;;;;16.08;70.43;99405.59;4975186;28;36128;-93
2021/05/25 01:50:13;;;;;;;3.33;1.62;;;;;;;16.01;70.83;99390.16;4911806;29;33922;-91
2021/05/25 01:52:50;;;;;;;5.28;1.85;;;;;;;16.00;70.59;99399.44;4937331;29;33070;-95
2021/05/25 01:55:46;;;;;;;3.25;1.50;;;;;;;16.06;70.21;99409.41;4922867;29;34429;-90
2021/05/25 01:58:25;;;;;;;2.22;1.65;;;;;;;16.17;69.54;99415.13;4928328;29;33337;-95
2021/05/25 02:01:14;;;;;;;5.45;1.95;;;;;;;16.00;70.45;99409.47;4960873;28;33504;-94
2021/05/25 02:04:03;;;;;;;2.55;1.60;;;;;;;15.82;71.19;99413.06;4959119;28;32781;-91
2021/05/25 02:06:43;;;;;;;3.28;1.83;;;;;;;15.92;70.15;99423.44;4933634;28;35457;-96
2021/05/25 02:09:36;;;;;;;3.70;1.70;;;;;;;16.00;70.25;99431.28;4945890;29;35179;-95
2021/05/25 02:12:20;;;;;;;2.53;1.98;;;;;;;16.14;70.29;99426.50;4954893;28;34262;-95
2021/05/25 02:15:18;;;;;;;5.57;1.98;;;;;;;16.17;70.55;99420.59;4851153;28;35059;-96
2021/05/25 02:17:51;;;;;;;4.40;1.40;;;;;;;16.01;71.12;99406.53;4951004;28;34000;-91
2021/05/25 02:20:28;;;;;;;2.42;1.80;;;;;;;15.81;71.73;99411.44;4968694;28;35321;-96
2021/05/25 02:23:02;;;;;;;1.87;1.20;;;;;;;15.78;72.27;99395.53;4967693;28;34244;-91
2021/05/25 02:25:38;;;;;;;2.22;1.50;;;;;;;16.02;71.30;99402.75;4968263;28;32639;-90
2021/05/25 02:28:11;;;;;;;1.83;1.62;;;;;;;16.15;70.74;99400.88;4952835;28;35175;-96
2021/05/25 02:31:06;;;;;;;5.10;2.17;;;;;;;15.98;71.30;99390.63;4944095;28;35250;-90
2021/05/25 02:33:39;;;;;;;3.50;1.60;;;;;;;16.10;70.86;99395.31;4978745;28;33895;-96
2021/05/25 02:36:25;;;;;;;3.25;1.25;;;;;;;16.22;70.41;99397.00;4961421;28;34030;-90
2021/05/25 02:39:00;;;;;;;5.62;1.98;;;;;;;16.23;70.66;99400.56;4964159;28;35260;-95
2021/05/25 02:42:07;;;;;;;3.15;2.10;;;;;;;16.14;70.99;99405.50;4456190;28;37170;-91
2021/05/25 02:44:42;;;;;;;2.87;1.90;;;;;;;16.10;70.83;99408.94;4972933;28;33712;-95
2021/05/25 02:47:52;;;;;;;3.00;1.60;;;;;;;16.11;70.78;99410.56;4954690;28;34928;-95
2021/05/25 02:50:25;;;;;;;4.43;1.70;;;;;;;15.87;71.13;99418.69;4988578;28;34664;-91
2021/05/25 02:52:58;;;;;;;2.67;1.90;;;;;;;15.83;71.44;99417.47;4987117;28;34096;-94
2021/05/25 02:55:34;;;;;;;5.43;1.83;;;;;;;15.70;71.71;99413.84;4987557;28;34008;-94
2021/05/25 02:58:14;;;;;;;2.37;1.70;;;;;;;16.03;70.61;99414.47;4954642;28;33568;-94
2021/05/25 03:00:48;;;;;;;3.90;1.83;;;;;;;15.78;71.20;99406.41;5002916;28;34836;-92
2021/05/25 03:03:38;;;;;;;3.72;1.42;;;;;;;15.66;71.87;99409.91;4984983;28;35405;-91
2021/05/25 03:06:11;;;;;;;4.00;2.03;;;;;;;15.60;71.93;99396.34;5003828;28;36461;-91
2021/05/25 03:08:45;;;;;;;2.40;1.50;;;;;;;15.63;71.68;99391.28;4986135;28;33726;-94
2021/05/25 03:11:20;;;;;;;3.40;1.65;;;;;;;15.66;71.40;99393.56;4987299;28;32684;-96
2021/05/25 03:21:19;;;;;;;4.05;1.90;;;;;;;15.57;71.72;99375.00;4987449;28;38675;-95
2021/05/25 03:24:41;;;;;;;2.15;1.62;;;;;;;15.83;70.45;99376.59;4895319;29;35777;-91
2021/05/25 03:27:16;;;;;;;2.60;1.80;;;;;;;15.81;70.37;99374.13;4917445;29;35987;-91
2021/05/25 03:29:50;;;;;;;2.53;1.60;;;;;;;15.38;71.66;99363.34;4913376;29;33873;-95
2021/05/25 03:32:23;;;;;;;3.33;1.70;;;;;;;15.30;72.01;99361.72;4929495;29;35125;-93
2021/05/25 03:35:11;;;;;;;2.33;1.40;;;;;;;15.41;71.62;99351.97;4932746;29;35541;-94
2021/05/25 03:37:45;;;;;;;4.68;1.80;;;;;;;15.30;71.77;99365.28;4973267;28;34134;-93
2021/05/25 03:41:19;;;;;;;6.68;1.80;;;;;;;15.41;71.29;99371.03;4908996;29;35147;-93
2021/05/25 03:43:53;;;;;;;2.15;1.50;;;;;;;15.14;72.45;99374.88;4910110;29;33821;-95
2021/05/25 03:46:36;;;;;;;3.10;1.40;;;;;;;15.39;71.72;99384.03;4921997;28;34210;-94
2021/05/25 03:49:35;;;;;;;5.53;1.60;;;;;;;15.58;70.96;99390.31;4934361;29;34541;-94
2021/05/25 03:52:19;;;;;;;2.42;2.00;;;;;;;15.46;71.23;99403.84;4970422;28;35120;-90
2021/05/25 03:54:56;;;;;;;4.22;2.80;;;;;;;15.48;71.11;99415.38;4984054;28;33234;-90
2021/05/25 04:00:05;;;;;;;3.47;2.00;;;;;;;15.34;72.55;99423.69;4983642;28;33488;-90
2021/05/25 04:02:38;;;;;;;9.13;2.30;;;;;;;15.34;72.84;99422.84;4967817;28;32743;-95
2021/05/25 04:05:12;;;;;;;2.10;1.90;;;;;;;15.18;73.35;99414.22;4984403;28;32996;-90
2021/05/25 04:07:46;;;;;;;3.97;2.50;;;;;;;15.46;72.59;99414.75;4968745;28;34769;-90
2021/05/25 04:10:19;;;;;;;4.65;2.45;;;;;;;15.62;72.34;99411.41;4984028;28;33897;-93
2021/05/25 04:16:51;;;;;;;3.70;2.10;;;;;;;15.91;71.31;99416.31;4972494;28;33027;-94
2021/05/25 04:20:05;;;;;;;2.45;1.90;;;;;;;15.93;71.55;99406.84;4461299;29;36193;-91
2021/05/25 04:22:38;;;;;;;2.70;1.60;;;;;;;15.93;71.86;99409.59;4936043;29;35020;-91
2021/05/25 04:25:12;;;;;;;10.18;2.30;;;;;;;16.02;71.60;99413.66;4945079;29;33533;-90
2021/05/25 04:27:49;;;;;;;2.65;1.90;;;;;;;15.90;72.25;99415.50;4929440;29;34872;-91
2021/05/25 04:30:23;;;;;;;6.50;2.67;;;;;;;15.95;72.39;99426.53;4945464;29;33572;-95
2021/05/25 04:32:56;;;;;;;3.33;2.22;;;;;;;16.17;71.37;99431.50;4945441;28;34426;-94
2021/05/25 04:35:46;;;;;;;4.82;2.10;;;;;;;16.32;70.74;99434.59;4946186;29;33026;-91
2021/05/25 04:38:21;;;;;;;3.87;2.22;;;;;;;16.03;72.08;99441.72;4945317;29;33432;-90
2021/05/25 04:40:58;;;;;;;3.55;2.20;;;;;;;16.32;71.35;99444.69;4919065;29;32193;-95
2021/05/25 04:43:32;;;;;;;3.80;2.62;;;;;;;16.46;71.08;99439.88;4919561;29;33613;-91
2021/05/25 04:46:06;;;;;;;6.47;2.12;;;;;;;16.63;70.10;99440.00;4917572;29;34544;-91
2021/05/25 04:48:39;;;;;;;2.85;2.25;;;;;;;16.62;70.22;99447.38;4949188;28;34172;-93
2021/05/25 04:55:01;;;;;;;3.35;2.15;;;;;;;17.05;69.64;99440.81;4878620;29;20112;-95
2021/05/25 04:58:05;;;;;;;4.45;2.78;;;;;;;17.24;68.51;99440.66;4885202;29;33723;-96
2021/05/25 05:00:38;;;;;;;3.10;2.47;;;;;;;17.02;68.94;99449.47;4870433;29;34668;-90
2021/05/25 05:03:13;;;;;;;3.05;2.12;;;;;;;17.07;67.84;99452.31;4869394;29;33281;-94
2021/05/25 05:06:13;;;;;;;3.85;2.12;;;;;;;16.95;68.60;99446.03;4863448;29;32549;-90
2021/05/25 05:08:47;;;;;;;6.03;2.28;;;;;;;17.01;68.38;99441.53;4898045;29;34525;-91
2021/05/25 05:11:20;;;;;;;6.12;2.12;;;;;;;17.06;69.30;99447.91;4855645;29;34175;-91
2021/05/25 05:13:54;;;;;;;3.45;2.12;;;;;;;17.19;68.96;99443.31;4889111;29;35302;-91
2021/05/25 05:16:28;;;;;;;4.70;2.00;;;;;;;17.09;69.37;99458.34;4923734;29;33891;-91
2021/05/25 05:19:04;;;;;;;2.95;2.33;;;;;;;16.91;69.75;99466.66;4923938;29;33905;-91
2021/05/25 05:21:41;;;;;;;3.83;2.35;;;;;;;17.02;70.27;99465.84;4924121;29;34101;-90
2021/05/25 05:24:25;;;;;;;4.47;2.50;;;;;;;17.04;70.70;99454.69;4900907;29;35099;-95
2021/05/25 05:27:13;;;;;;;2.37;1.85;;;;;;;17.43;69.31;99466.78;4901429;29;32295;-96
2021/05/25 05:30:04;;;;;;;4.50;2.22;;;;;;;17.35;67.82;99469.88;4929088;29;32771;-90
2021/05/25 05:32:38;;;;;;;3.08;1.77;;;;;;;17.74;67.60;99474.81;4950549;28;33455;-95
2021/05/25 05:35:33;;;;;;;8.02;1.95;;;;;;;17.43;66.94;99483.16;4940359;29;33552;-90
2021/05/25 05:38:08;;;;;;;5.72;2.22;;;;;;;17.10;67.78;99476.41;4920139;29;33337;-96
2021/05/25 05:41:07;;;;;;;7.25;2.12;;;;;;;17.67;67.43;99474.94;4960908;28;33164;-90
2021/05/25 05:43:40;;;;;;;8.35;2.25;;;;;;;17.99;67.60;99474.53;4961186;28;32894;-90
2021/05/25 05:46:15;;;;;;;4.50;1.95;;;;;;;17.52;66.46;99464.50;4960179;28;34670;-90
2021/05/25 05:48:48;;;;;;;1.95;1.50;;;;;;;18.02;66.10;99463.09;4918955;28;1648047;-90
2021/05/25 05:51:23;;;;;;;3.28;1.75;;;;;;;17.79;65.84;99455.78;4961596;28;33723;-90
2021/05/25 05:53:59;;;;;;;5.82;2.00;;;;;;;17.80;65.05;99457.47;4977822;28;33812;-90
2021/05/25 05:56:33;;;;;;;4.28;2.33;;;;;;;17.54;66.43;99467.00;4973979;28;34429;-90
2021/05/25 05:59:07;;;;;;;3.30;2.00;;;;;;;17.11;67.04;99469.88;4981947;28;33805;-90
2021/05/25 06:04:34;;;;;;;4.37;2.25;;;;;;;17.33;67.60;99487.56;4965504;28;34012;-89
2021/05/25 06:07:07;;;;;;;4.47;2.10;;;;;;;17.16;68.30;99492.94;4980848;28;35268;-90
2021/05/25 06:09:41;;;;;;;5.32;2.03;;;;;;;17.06;68.37;99515.34;4965430;28;34208;-90
2021/05/25 06:12:17;;;;;;;4.15;2.08;;;;;;;17.40;69.02;99510.16;4966324;28;33906;-90
2021/05/25 06:14:50;;;;;;;3.83;2.28;;;;;;;17.65;68.04;99513.44;4981899;28;33357;-90
2021/05/25 06:17:23;;;;;;;6.93;2.70;;;;;;;17.50;67.78;99517.72;4968187;28;35070;-96
2021/05/25 06:20:23;;;;;;;5.15;3.10;;;;;;;17.39;67.75;99520.22;4927822;29;32721;-92
2021/05/25 06:23:27;;;;;;;10.02;3.12;;;;;;;17.58;67.55;99522.84;4941515;29;33243;-96
2021/05/25 06:26:27;;;;;;;7.25;3.30;;;;;;;17.22;69.13;99520.09;4940469;29;34211;-92
2021/05/25 06:29:10;;;;;;;4.05;2.95;;;;;;;17.87;68.69;99533.84;4990210;28;33540;-96
2021/05/25 06:32:11;;;;;;;4.90;3.22;;;;;;;17.83;67.34;99537.06;4866771;28;35564;-92
2021/05/25 06:34:58;;;;;;;4.40;3.72;;;;;;;17.72;68.70;99540.62;4976236;28;33328;-96
2021/05/25 06:37:42;;;;;;;5.62;3.28;;;;;;;17.82;68.39;99535.41;4977426;28;33929;-92
2021/05/25 06:40:18;;;;;;;7.15;3.58;;;;;;;17.31;69.61;99544.34;4991784;28;35363;-91
2021/05/25 06:43:19;;;;;;;5.85;3.65;;;;;;;17.51;69.40;99541.25;4954252;28;34223;-93
2021/05/25 06:45:52;;;;;;;5.53;2.83;;;;;;;18.03;68.84;99535.03;4988247;28;33762;-92
2021/05/25 06:48:27;;;;;;;3.97;3.10;;;;;;;18.49;66.93;99539.53;4985140;28;34554;-96
2021/05/25 06:51:26;;;;;;;5.90;3.33;;;;;;;18.74;64.47;99535.56;4904249;29;34915;-96
2021/05/25 06:54:42;;;;;;;3.67;2.17;;;;;;;18.33;64.11;99530.19;4940921;28;33397;-92
2021/05/25 06:57:20;;;;;;;3.72;2.85;;;;;;;18.43;64.78;99531.44;4959807;28;35192;-96
2021/05/25 07:00:21;;;;;;;6.78;2.80;;;;;;;18.52;65.25;99533.56;4900033;29;33920;-96
2021/05/25 07:03:33;;;;;;;4.62;2.35;;;;;;;19.16;65.55;99535.25;4836935;29;33915;-96
2021/05/25 07:06:25;;;;;;;6.53;2.40;;;;;;;19.51;63.55;99533.31;4883215;29;34359;-96
2021/05/25 07:08:59;;;;;;;4.95;2.72;;;;;;;19.14;61.94;99540.12;4920601;29;32783;-96
2021/05/25 07:12:43;;;;;;;4.75;2.90;;;;;;;19.67;61.99;99548.06;4777244;29;35334;-94
2021/05/25 07:15:44;;;;;;;4.90;3.40;;;;;;;19.41;61.12;99561.38;4899981;29;33629;-94
2021/05/25 07:18:59;;;;;;;3.90;3.50;;;;;;;18.92;61.92;99558.37;4883986;29;33297;-94
2021/05/25 07:21:42;;;;;;;;;;;;;;;18.82;62.45;99559.00;4950804;28;32807;-96
2021/05/25 09:06:42;;;;;;;4.87;1.85;;;;;;;15.67;72.80;99715.81;4476221;31;991655;-93
2021/05/25 09:09:19;;;;;;;9.25;3.22;;;;;;;16.16;69.63;99711.44;4492218;31;33659;-91
2021/05/25 09:12:06;;;;;;;4.50;1.60;;;;;;;16.64;68.88;99709.88;4481677;32;32807;-93
2021/05/25 09:14:49;;;;;;;14.27;5.55;;;;;;;17.16;67.78;99711.37;4479465;31;34234;-96
2021/05/25 09:17:25;;;;;;;2.92;2.22;;;;;;;17.39;66.53;99716.06;4505058;31;33831;-91
2021/05/25 09:20:01;;;;;;;7.22;3.83;;;;;;;17.54;64.91;99721.09;4481358;31;33085;-96
2021/05/25 09:22:37;;;;;;;10.18;3.53;;;;;;;17.45;65.20;99707.78;4474303;31;32691;-94
2021/05/25 09:25:24;;;;;;;5.20;2.53;;;;;;;17.50;65.17;99728.09;4483097;31;34675;-94
2021/05/25 09:28:02;;;;;;;3.17;1.70;;;;;;;17.78;64.71;99713.78;4475384;31;35487;-94
2021/05/25 09:30:37;;;;;;;14.80;5.22;;;;;;;17.91;64.07;99707.28;4498016;31;33591;-93
2021/05/25 09:33:11;;;;;;;2.72;1.90;;;;;;;18.17;64.19;99701.38;4480895;32;32722;-94
2021/05/25 09:35:49;;;;;;;4.20;1.50;;;;;;;18.23;63.40;99710.50;4480863;32;35321;-94
2021/05/25 09:38:28;;;;;;;4.33;1.60;;;;;;;18.39;62.71;99705.38;4474715;31;34009;-93
2021/05/25 09:41:03;;;;;;;3.83;1.50;;;;;;;18.65;62.91;99714.97;4493838;31;32868;-93
2021/05/25 09:43:38;;;;;;;2.70;1.40;;;;;;;18.93;61.74;99706.00;4487624;31;35098;-92
2021/05/25 09:46:13;;;;;;;3.25;1.15;;;;;;;19.07;61.49;99714.75;4498193;31;35010;-94
2021/05/25 09:48:46;;;;;;;2.10;1.40;;;;;;;19.37;61.00;99713.66;4475715;32;33292;-95
2021/05/25 09:51:26;;;;;;;5.22;1.75;;;;;;;19.39;59.94;99717.81;4471644;31;33884;-93
2021/05/25 09:54:02;;;;;;;3.65;1.80;;;;;;;19.11;61.04;99715.94;4489832;31;35025;-92
2021/05/25 09:56:40;;;;;;;6.55;1.50;;;;;;;18.93;61.46;99725.16;4478212;31;35308;-92
2021/05/25 09:59:28;;;;;;;5.75;1.30;;;;;;;17.99;62.30;99737.00;4475209;31;32926;-95
2021/05/25 10:02:19;;;;;;;1.62;1.30;;;;;;;17.20;65.05;99737.97;4501755;31;34121;-93
2021/05/25 10:05:12;;;;;;;2.45;1.33;;;;;;;16.84;65.94;99752.47;4426115;32;36568;-95
2021/05/25 10:07:50;;;;;;;3.25;1.48;;;;;;;16.41;66.87;99760.50;4437001;32;33704;-91
2021/05/25 10:10:30;;;;;;;4.07;1.65;;;;;;;16.68;67.50;99752.03;4419271;32;34115;-95
2021/05/25 10:13:04;;;;;;;4.10;1.98;;;;;;;16.40;67.39;99764.28;4407306;32;34615;-94
2021/05/25 10:15:56;;;;;;;;;;;;;;;16.44;67.48;99759.22;4396178;32;34284;-94
2021/05/25 10:18:37;;;;;;;1.20;1.10;;;;;;;16.40;67.02;99756.09;4420346;32;33713;-95
2021/05/25 10:21:13;;;;;;;4.65;1.45;;;;;;;16.10;68.43;99757.87;4408591;32;33816;-94
2021/05/25 10:23:47;;;;;;;1.60;1.35;;;;;;;16.84;65.96;99752.47;4419824;32;32704;-94
2021/05/25 10:26:21;;;;;;;1.58;1.10;;;;;;;16.93;66.24;99749.25;4407503;32;34308;-95
2021/05/25 10:29:04;;;;;;;5.28;1.50;;;;;;;17.31;65.65;99747.28;4396844;32;32879;-95
2021/05/25 10:31:39;;;;;;;2.55;1.30;;;;;;;17.71;64.86;99749.44;4418105;32;32681;-96
2021/05/25 10:34:19;;;;;;;4.28;1.48;;;;;;;18.32;62.84;99746.53;4407956;32;31767;-94
2021/05/25 10:37:01;;;;;;;6.75;1.27;;;;;;;18.32;62.31;99741.06;4406788;32;34410;-95
2021/05/25 10:39:40;;;;;;;2.47;1.23;;;;;;;18.48;63.25;99743.06;4406392;32;33709;-95
2021/05/25 10:42:19;;;;;;;2.28;0.85;;;;;;;18.76;61.22;99741.50;4409895;32;33115;-96
2021/05/25 10:44:56;;;;;;;4.87;1.10;;;;;;;18.67;59.32;99738.28;4408706;32;33395;-95
2021/05/25 10:47:50;;;;;;;1.10;0.80;;;;;;;18.11;60.10;99746.06;4409890;32;34836;-96
2021/05/25 10:50:54;;;;;;;1.23;0.80;;;;;;;18.20;60.72;99740.22;4349136;32;32277;-91
2021/05/25 10:53:27;;;;;;;4.32;1.12;;;;;;;18.75;57.92;99742.56;4360663;32;33850;-92
2021/05/25 10:56:25;;;;;;;1.37;0.60;;;;;;;18.96;57.67;99745.75;4357223;32;33553;-94
2021/05/25 10:59:04;;;;;;;2.30;0.62;;;;;;;18.77;59.67;99758.75;4359484;32;33390;-91
2021/05/25 11:01:41;;;;;;;1.23;0.60;;;;;;;19.04;57.43;99753.56;4348042;32;34676;-93
2021/05/25 11:04:15;;;;;;;3.20;0.70;;;;;;;18.42;59.57;99759.63;4363541;32;34002;-95
2021/05/25 11:06:51;;;;;;;0.75;0.70;;;;;;;18.55;57.66;99761.25;4372449;32;35587;-95
2021/05/25 11:09:29;;;;;;;0.70;0.50;;;;;;;18.74;58.25;99756.47;4367656;32;34438;-93
2021/05/25 11:12:13;;;;;;;2.90;0.93;;;;;;;18.25;58.21;99768.53;4377131;32;33971;-93
2021/05/25 11:15:15;;;;;;;2.12;0.80;;;;;;;18.33;59.15;99772.81;4363452;32;35654;-95
2021/05/25 11:17:50;;;;;;;1.27;0.70;;;;;;;18.08;58.64;99783.97;4374240;32;32948;-92
2021/05/25 11:20:38;;;;;;;1.08;0.85;;;;;;;17.98;58.83;99781.84;4372474;32;34217;-94
2021/05/25 11:23:39;;;;;;;1.50;0.70;;;;;;;17.77;59.83;99777.69;4383299;32;33785;-92
2021/05/25 11:26:50;;;;;;;1.30;0.70;;;;;;;17.35;60.00;99778.53;4368144;32;33136;-95
2021/05/25 11:29:32;;;;;;;0.93;0.70;;;;;;;17.61;61.32;99790.16;4368661;32;33694;-92
2021/05/25 11:32:11;;;;;;;2.37;0.65;;;;;;;17.85;59.38;99774.66;4367401;32;33475;-94
2021/05/25 11:35:02;;;;;;;2.35;0.68;;;;;;;18.46;60.93;99772.59;4373553;32;33249;-95
2021/05/25 11:38:03;;;;;;;2.95;0.60;;;;;;;19.02;58.96;99766.69;4360445;32;35399;-94
2021/05/25 11:40:43;;;;;;;2.72;0.65;;;;;;;19.78;56.05;99754.72;4357469;32;32392;-94
2021/05/25 11:43:22;;;;;;;0.80;0.55;;;;;;;20.26;54.47;99754.12;4363786;32;33478;-95
2021/05/25 11:45:58;;;;;;;2.75;0.60;;;;;;;20.86;53.39;99762.66;4363286;32;34336;-96
2021/05/25 11:48:34;;;;;;;2.75;0.68;;;;;;;21.01;53.69;99772.19;4382289;32;33671;-94
2021/05/25 11:51:11;;;;;;;1.42;0.52;;;;;;;21.80;49.77;99757.13;4371579;32;33581;-94
2021/05/25 11:53:52;;;;;;;2.53;0.50;;;;;;;22.03;48.41;99778.75;4351574;32;32779;-92
2021/05/25 11:56:27;;;;;;;0.57;0.50;;;;;;;21.66;49.11;99781.47;4374189;32;36117;-95
2021/05/25 11:59:00;;;;;;;1.35;0.77;;;;;;;22.13;48.70;99779.97;4378168;32;33087;-94
2021/05/25 12:01:45;;;;;;;1.50;0.37;;;;;;;21.78;47.70;99778.53;4377766;32;34792;-93
2021/05/25 12:04:21;;;;;;;0.37;0.22;;;;;;;20.90;47.97;99783.06;4392136;32;33325;-93
2021/05/25 12:06:58;;;;;;;1.83;0.37;;;;;;;20.34;49.26;99787.72;4379279;32;33760;-94
2021/05/25 12:09:35;;;;;;;1.92;0.57;;;;;;;19.57;51.71;99781.72;4378100;32;34278;-94
2021/05/25 12:12:11;;;;;;;1.77;0.30;;;;;;;20.09;49.27;99798.03;4375104;32;34849;-95
2021/05/25 12:14:48;;;;;;;2.35;0.45;;;;;;;19.56;48.17;99780.87;4392125;32;33895;-95
2021/05/25 12:17:23;;;;;;;0.95;0.32;;;;;;;19.40;50.04;99795.37;4391360;32;34728;-95
2021/05/25 12:19:58;;;;;;;1.75;0.35;;;;;;;19.56;50.05;99789.09;4378790;32;33791;-93
2021/05/25 12:22:40;;;;;;;0.95;0.30;;;;;;;19.67;49.14;99803.00;4378031;32;33637;-93
2021/05/25 12:25:25;;;;;;;1.10;0.15;;;;;;;19.33;49.24;99801.00;4379731;32;33227;-94
2021/05/25 12:28:02;;;;;;;1.17;0.40;;;;;;;19.13;50.91;99795.97;4390590;32;34969;-93
2021/05/25 12:30:37;;;;;;;1.12;0.30;;;;;;;19.18;49.62;99798.78;4404737;32;33820;-94
2021/05/25 12:33:26;;;;;;;2.00;0.20;;;;;;;19.06;51.56;99806.22;4390201;32;34810;-95
2021/05/25 12:36:21;;;;;;;4.95;0.40;;;;;;;19.19;51.54;99807.84;4366634;32;34335;-92
2021/05/25 12:39:00;;;;;;;0.47;0.20;;;;;;;19.37;49.85;99802.19;4364544;32;35942;-94
2021/05/25 12:41:46;;;;;;;1.80;0.37;;;;;;;18.88;52.45;99805.28;4370576;32;35091;-94
2021/05/25 12:44:27;;;;;;;0.57;0.30;;;;;;;18.46;52.53;99823.75;4381189;32;32702;-95
2021/05/25 12:47:10;;;;;;;2.22;0.45;;;;;;;18.66;51.44;99815.16;4390799;32;34210;-92
2021/05/25 12:49:49;;;;;;;1.87;0.40;;;;;;;17.97;52.28;99812.97;4380127;32;33413;-94
2021/05/25 12:52:27;;;;;;;0.80;0.45;;;;;;;17.59;52.42;99816.84;4365873;32;32896;-94
2021/05/25 12:55:07;;;;;;;2.55;0.43;;;;;;;17.68;51.40;99823.69;4369825;32;33964;-96
2021/05/25 12:57:48;;;;;;;0.60;0.30;;;;;;;17.50;52.84;99840.09;4379565;32;34623;-96
2021/05/25 13:00:31;;;;;;;0.90;0.32;;;;;;;17.71;51.82;99834.16;4369010;32;36151;-93
2021/05/25 13:03:30;;;;;;;1.70;0.40;;;;;;;17.92;50.52;99834.69;4379683;32;34375;-94
2021/05/25 13:06:15;;;;;;;3.47;0.30;;;;;;;17.82;51.59;99816.94;4383547;32;33163;-94
2021/05/25 13:08:53;;;;;;;0.65;0.45;;;;;;;17.96;48.09;99814.03;4376759;32;33516;-91
2021/05/25 13:11:27;;;;;;;2.15;0.40;;;;;;;18.02;49.00;99821.28;4357750;32;34839;-91
2021/05/25 13:14:03;;;;;;;1.85;0.70;;;;;;;18.38;49.64;99824.09;4380208;32;33557;-95
2021/05/25 13:16:39;;;;;;;3.55;0.70;;;;;;;18.57;47.16;99819.34;4378016;32;32692;-96
2021/05/25 13:19:55;;;;;;;5.78;0.40;;;;;;;19.02;47.28;99816.00;4374235;32;34104;-96
2021/05/25 13:22:35;;;;;;;2.80;0.37;;;;;;;19.22;44.32;99810.09;4382796;32;34091;-96
2021/05/25 13:25:32;;;;;;;1.60;0.60;;;;;;;19.89;44.49;99806.72;4396208;32;32383;-95
2021/05/25 13:28:05;;;;;;;1.12;0.57;;;;;;;20.59;42.60;99818.28;4373138;32;33523;-95
2021/05/25 13:31:26;;;;;;;1.25;0.40;;;;;;;21.20;39.42;99812.00;4365419;32;34280;-92
2021/05/25 13:34:07;;;;;;;1.70;0.60;;;;;;;21.43;40.35;99810.87;4367902;32;34446;-96
2021/05/25 13:37:01;;;;;;;3.35;0.47;;;;;;;21.16;40.15;99821.84;4349137;32;33559;-96
2021/05/25 13:39:37;;;;;;;2.33;0.50;;;;;;;20.58;42.08;99830.38;4375130;32;33513;-94
2021/05/25 13:42:10;;;;;;;1.58;0.45;;;;;;;19.87;44.18;99822.59;4355454;32;35464;-95
2021/05/25 13:44:43;;;;;;;0.82;0.40;;;;;;;20.13;43.09;99822.22;4353408;32;35610;-95
2021/05/25 13:47:19;;;;;;;2.70;0.65;;;;;;;20.22;41.09;99829.78;4362040;32;33760;-96
2021/05/25 13:49:52;;;;;;;0.55;0.30;;;;;;;19.65;42.70;99819.69;4361532;32;34600;-94
2021/05/25 13:52:25;;;;;;;3.75;0.30;;;;;;;19.87;43.87;99830.84;4329497;32;32761;-94
2021/05/25 13:55:00;;;;;;;1.67;0.30;;;;;;;19.85;43.38;99835.75;4368570;32;33743;-94
2021/05/25 13:58:14;;;;;;;4.05;0.50;;;;;;;19.40;44.09;99822.78;4360321;32;33639;-95
2021/05/25 14:03:26;;;;;;;1.27;0.57;;;;;;;19.78;43.69;99828.75;4352573;32;34422;-96
2021/05/25 14:05:58;;;;;;;1.62;0.60;;;;;;;20.04;43.03;99832.78;4363406;32;35732;-94
2021/05/25 14:08:33;;;;;;;1.35;0.47;;;;;;;20.35;43.32;99817.66;4366073;32;33541;-95
2021/05/25 14:11:07;;;;;;;6.10;0.55;;;;;;;20.25;42.68;99820.22;4364916;32;34585;-94
2021/05/25 14:13:58;;;;;;;4.03;0.40;;;;;;;20.14;43.56;99832.13;4375546;32;33891;-95
2021/05/25 14:16:33;;;;;;;3.97;0.60;;;;;;;19.59;44.28;99842.63;4369900;32;34517;-95
2021/05/25 14:19:08;;;;;;;0.95;0.52;;;;;;;19.49;45.72;99837.78;4354310;32;33519;-96
2021/05/25 14:21:44;;;;;;;3.17;0.30;;;;;;;18.97;46.41;99841.37;4336165;32;32381;-94
2021/05/25 14:24:20;;;;;;;0.88;0.40;;;;;;;18.57;46.52;99830.28;4355455;32;33682;-95
2021/05/25 14:26:54;;;;;;;8.32;1.15;;;;;;;18.43;48.97;99830.53;4359171;32;35620;-95
2021/05/25 14:29:30;;;;;;;1.98;0.50;;;;;;;18.34;49.42;99842.91;4363521;32;33489;-91
2021/05/25 14:32:03;;;;;;;4.03;0.82;;;;;;;17.99;49.30;99840.91;4342430;32;33935;-93
2021/05/25 14:34:38;;;;;;;0.93;0.40;;;;;;;17.68;51.83;99841.97;4351230;32;33400;-93
2021/05/25 14:37:11;;;;;;;1.27;0.73;;;;;;;17.85;50.81;99839.44;4369278;32;33629;-95
2021/05/25 14:39:47;;;;;;;3.53;0.68;;;;;;;18.05;50.84;99844.62;4370804;32;34433;-91
2021/05/25 14:42:20;;;;;;;2.42;0.60;;;;;;;17.81;51.44;99839.91;4383201;32;32932;-91
2021/05/25 14:44:57;;;;;;;1.23;0.40;;;;;;;17.34;51.69;99842.41;4360163;32;33334;-96
2021/05/25 14:48:16;;;;;;;0.40;0.40;;;;;;;16.98;53.89;99846.84;4297802;27;35390;-92
2021/05/25 14:51:09;;;;;;;2.65;0.70;;;;;;;17.64;52.46;99845.16;4365112;32;32458;-96
2021/05/25 14:53:48;;;;;;;3.83;0.93;;;;;;;17.40;54.82;99843.41;4388642;32;33173;-93
2021/05/25 14:56:25;;;;;;;2.05;0.93;;;;;;;17.62;54.48;99841.03;4388594;32;33789;-93
2021/05/25 14:59:00;;;;;;;4.80;0.57;;;;;;;17.82;54.94;99841.53;4400724;32;33756;-95
2021/05/25 15:01:44;;;;;;;2.37;0.70;;;;;;;17.93;54.26;99830.91;4377832;32;33141;-95
2021/05/25 15:04:23;;;;;;;4.87;0.70;;;;;;;17.74;54.50;99841.03;4378150;32;34988;-93